Time;durP1;ratioP1;P1;durP2;ratioP2;P2;SDS_P1;SDS_P2;PMS_P1;PMS_P2;Temp;Humidity;BMP_temperature;BMP_pressure;BME280_temperature;BME280_humidity;BME280_pressure;Samples;Min_cycle;Max_cycle;Signal;HPM_P1;HPM_P2
2022/10/23 00:00:26;;;;;;;7.68;5.45;;;12.70;99.90;;;;;;6119790;23;20218;-72
2022/10/23 00:02:54;;;;;;;6.63;5.10;;;12.60;99.90;;;;;;6128790;23;20191;-73
2022/10/23 00:05:22;;;;;;;6.13;5.30;;;12.60;99.90;;;;;;6123400;23;20218;-72
2022/10/23 00:07:50;;;;;;;7.25;5.35;;;12.60;99.90;;;;;;6122679;23;20279;-73
2022/10/23 00:10:19;;;;;;;8.07;5.40;;;12.50;99.90;;;;;;6118945;23;20206;-73
2022/10/23 00:12:47;;;;;;;6.13;5.43;;;12.50;99.90;;;;;;6118470;23;20227;-73
2022/10/23 00:15:16;;;;;;;6.60;5.47;;;12.50;99.90;;;;;;6089337;23;20212;-73
2022/10/23 00:17:45;;;;;;;7.22;5.63;;;12.50;99.90;;;;;;6121357;23;20545;-73
2022/10/23 00:20:14;;;;;;;6.47;5.45;;;12.50;99.90;;;;;;6117828;23;20191;-73
2022/10/23 00:22:41;;;;;;;8.48;5.78;;;12.50;99.90;;;;;;6100806;23;20210;-73
2022/10/23 00:25:09;;;;;;;6.20;5.60;;;12.50;99.90;;;;;;6118956;23;20696;-73
2022/10/23 00:27:38;;;;;;;6.70;6.10;;;12.50;99.90;;;;;;6118492;23;20694;-73
2022/10/23 00:30:06;;;;;;;7.53;5.70;;;12.50;99.90;;;;;;6118091;23;20719;-73
2022/10/23 00:32:33;;;;;;;5.85;5.13;;;12.50;99.90;;;;;;6139889;23;20278;-73
2022/10/23 00:35:03;;;;;;;6.28;5.38;;;12.50;99.90;;;;;;6118421;23;20242;-72
2022/10/23 00:37:30;;;;;;;6.45;5.40;;;12.40;99.90;;;;;;6121158;23;20226;-73
2022/10/23 00:39:57;;;;;;;5.80;5.10;;;12.40;99.90;;;;;;6125305;23;20718;-72
2022/10/23 00:42:25;;;;;;;5.60;5.05;;;12.40;99.90;;;;;;6117173;23;20296;-73
2022/10/23 00:45:19;;;;;;;6.32;5.72;;;12.40;99.90;;;;;;6119430;23;20187;-73
2022/10/23 00:47:47;;;;;;;6.85;5.50;;;12.30;99.90;;;;;;6124630;23;20200;-73
2022/10/23 00:50:15;;;;;;;6.70;4.57;;;12.30;99.90;;;;;;6119578;23;20256;-73
2022/10/23 00:52:46;;;;;;;5.88;5.20;;;12.20;99.90;;;;;;6117495;23;20244;-73
2022/10/23 00:55:15;;;;;;;6.30;5.70;;;12.20;99.90;;;;;;6119815;23;20207;-73
2022/10/23 00:57:44;;;;;;;6.57;4.93;;;12.20;99.90;;;;;;6118269;23;20227;-73
2022/10/23 01:00:15;;;;;;;7.53;5.10;;;12.10;99.90;;;;;;6119157;23;21081;-72
2022/10/23 01:02:43;;;;;;;6.70;5.82;;;12.10;99.90;;;;;;6119300;23;20820;-73
2022/10/23 01:05:11;;;;;;;6.25;5.68;;;12.10;99.90;;;;;;6142876;23;20683;-73
2022/10/23 01:07:47;;;;;;;6.18;5.60;;;12.10;99.90;;;;;;6119361;23;20274;-73
2022/10/23 01:10:18;;;;;;;7.18;5.43;;;12.00;99.90;;;;;;6119647;23;20203;-73
2022/10/23 01:12:53;;;;;;;5.63;5.15;;;12.00;99.90;;;;;;6139694;23;20187;-72
2022/10/23 01:15:25;;;;;;;7.97;5.80;;;12.00;99.90;;;;;;6148933;23;20200;-73
2022/10/23 01:17:58;;;;;;;6.05;5.55;;;12.00;99.90;;;;;;6118353;23;20274;-73
2022/10/23 01:20:43;;;;;;;6.15;5.65;;;11.90;99.90;;;;;;6127725;23;20285;-73
2022/10/23 01:23:47;;;;;;;5.90;5.35;;;11.90;99.90;;;;;;6108527;23;20569;-73
2022/10/23 01:26:44;;;;;;;7.00;6.38;;;11.90;99.90;;;;;;6116156;23;20598;-73
2022/10/23 01:29:20;;;;;;;7.00;6.38;;;11.90;99.90;;;;;;6118974;23;20206;-72
2022/10/23 01:31:53;;;;;;;7.70;6.65;;;11.90;99.90;;;;;;6117859;23;20697;-73
2022/10/23 01:34:28;;;;;;;8.25;6.55;;;11.80;99.90;;;;;;6119013;23;20207;-73
2022/10/23 01:36:57;;;;;;;8.93;6.55;;;11.90;99.90;;;;;;6116955;23;20214;-73
2022/10/23 01:39:28;;;;;;;8.60;6.60;;;11.80;99.90;;;;;;6118973;23;20203;-72
2022/10/23 01:41:59;;;;;;;7.18;6.57;;;11.70;99.90;;;;;;6118955;23;20483;-73
2022/10/23 01:44:32;;;;;;;6.57;5.97;;;11.70;99.90;;;;;;6117893;23;20223;-73
2022/10/23 01:47:03;;;;;;;8.40;7.03;;;11.60;99.90;;;;;;6104500;23;21827;-73
2022/10/23 01:49:31;;;;;;;7.25;6.50;;;11.60;99.90;;;;;;6123034;23;20202;-72
2022/10/23 01:52:02;;;;;;;8.88;6.88;;;11.50;99.90;;;;;;6121252;23;20199;-73
2022/10/23 01:54:31;;;;;;;7.65;6.93;;;11.50;99.90;;;;;;6124130;23;20540;-73
2022/10/23 01:57:00;;;;;;;8.52;7.57;;;11.40;99.90;;;;;;6119665;23;20297;-73
2022/10/23 01:59:34;;;;;;;8.07;7.38;;;11.40;99.90;;;;;;6134821;23;20265;-72
2022/10/23 02:02:03;;;;;;;7.80;7.10;;;11.40;99.90;;;;;;6135379;23;20243;-73
2022/10/23 02:04:33;;;;;;;8.55;7.65;;;11.40;99.90;;;;;;6119425;23;20593;-73
2022/10/23 02:07:00;;;;;;;7.97;7.28;;;11.40;99.90;;;;;;6119138;23;20199;-72
2022/10/23 02:09:28;;;;;;;9.85;7.18;;;11.30;99.90;;;;;;6130069;23;20226;-73
2022/10/23 02:12:03;;;;;;;8.65;7.85;;;11.30;99.90;;;;;;6135341;23;20278;-73
2022/10/23 02:14:43;;;;;;;7.60;6.90;;;11.30;99.90;;;;;;6120189;23;20274;-73
2022/10/23 02:17:16;;;;;;;7.90;7.20;;;11.30;99.90;;;;;;6126198;23;20268;-73
2022/10/23 02:19:50;;;;;;;7.60;6.80;;;11.40;99.90;;;;;;6119686;23;20270;-73
2022/10/23 02:22:24;;;;;;;8.80;8.00;;;11.40;99.90;;;;;;6114888;23;20198;-73
2022/10/23 02:24:55;;;;;;;9.15;8.35;;;11.40;99.90;;;;;;6123821;23;20256;-73
2022/10/23 02:27:29;;;;;;;8.15;7.35;;;11.50;99.90;;;;;;6119490;23;20629;-73
2022/10/23 02:30:04;;;;;;;8.27;6.55;;;11.40;99.90;;;;;;6119415;23;20274;-73
2022/10/23 02:32:32;;;;;;;9.38;7.72;;;11.40;99.90;;;;;;6124425;23;20198;-73
2022/10/23 02:35:00;;;;;;;9.10;8.38;;;11.40;99.90;;;;;;6117442;23;20670;-73
2022/10/23 02:37:27;;;;;;;7.82;7.13;;;11.40;99.90;;;;;;6115128;23;20621;-73
2022/10/23 02:39:54;;;;;;;9.60;7.03;;;11.40;99.90;;;;;;6123617;23;20195;-73
2022/10/23 02:42:26;;;;;;;10.13;8.00;;;11.40;99.90;;;;;;6121490;23;20716;-73
2022/10/23 02:45:04;;;;;;;8.40;7.65;;;11.40;99.90;;;;;;6136129;23;20248;-73
2022/10/23 02:47:52;;;;;;;9.52;7.43;;;11.40;99.90;;;;;;6123224;23;20207;-73
2022/10/23 02:50:29;;;;;;;8.82;7.90;;;11.40;99.90;;;;;;6120026;23;20245;-73
2022/10/23 02:53:03;;;;;;;8.85;7.32;;;11.40;99.90;;;;;;6128630;23;20203;-73
2022/10/23 02:55:37;;;;;;;8.30;7.45;;;11.40;99.90;;;;;;6134612;23;20207;-73
2022/10/23 02:58:10;;;;;;;8.80;7.78;;;11.40;99.90;;;;;;6119581;23;20245;-73
2022/10/23 03:00:43;;;;;;;9.55;8.70;;;11.40;99.90;;;;;;6133825;23;20194;-73
2022/10/23 03:03:14;;;;;;;7.15;6.55;;;11.40;99.90;;;;;;6138601;23;20619;-73
2022/10/23 03:05:43;;;;;;;7.85;7.15;;;11.40;99.90;;;;;;6119497;23;20288;-73
2022/10/23 03:08:13;;;;;;;14.00;8.80;;;11.40;99.90;;;;;;6119611;23;20276;-73
2022/10/23 03:10:41;;;;;;;8.93;8.02;;;11.40;99.90;;;;;;6120011;23;20210;-73
2022/10/23 03:13:09;;;;;;;11.95;9.68;;;11.40;99.90;;;;;;6120931;23;20206;-73
2022/10/23 03:15:36;;;;;;;9.35;8.63;;;11.40;99.90;;;;;;6123282;23;20744;-73
2022/10/23 03:18:05;;;;;;;11.43;8.73;;;11.40;99.90;;;;;;6119712;23;20277;-72
2022/10/23 03:20:32;;;;;;;7.85;7.22;;;11.40;99.90;;;;;;6119566;23;20279;-73
2022/10/23 03:22:59;;;;;;;8.68;7.82;;;11.40;99.90;;;;;;6131586;23;20640;-72
2022/10/23 03:25:27;;;;;;;9.20;8.02;;;11.40;99.90;;;;;;6125005;23;20282;-73
2022/10/23 03:27:54;;;;;;;8.50;7.70;;;11.40;99.90;;;;;;6120192;23;20206;-73
2022/10/23 03:30:22;;;;;;;13.75;9.80;;;11.30;99.90;;;;;;6117245;23;20274;-73
2022/10/23 03:32:49;;;;;;;8.27;7.35;;;11.30;99.90;;;;;;6143695;23;20530;-73
2022/10/23 03:35:17;;;;;;;10.00;8.98;;;11.30;99.90;;;;;;6144676;23;20195;-73
2022/10/23 03:37:45;;;;;;;8.90;8.10;;;11.20;99.90;;;;;;6119171;23;20217;-73
2022/10/23 03:40:12;;;;;;;10.18;9.18;;;11.20;99.90;;;;;;6118825;23;20560;-73
2022/10/23 03:42:39;;;;;;;9.93;7.13;;;11.20;99.90;;;;;;6117950;23;20190;-73
2022/10/23 03:45:07;;;;;;;7.70;7.00;;;11.20;99.90;;;;;;6118985;23;20195;-73
2022/10/23 03:47:39;;;;;;;8.18;7.40;;;11.10;99.90;;;;;;6142554;23;20286;-73
2022/10/23 03:50:08;;;;;;;8.30;7.32;;;11.10;99.90;;;;;;6136093;23;20266;-73
2022/10/23 03:52:36;;;;;;;9.05;8.18;;;11.10;99.90;;;;;;6119695;23;20664;-73
2022/10/23 03:55:04;;;;;;;8.35;7.60;;;11.00;99.90;;;;;;6125526;23;20221;-73
2022/10/23 03:57:32;;;;;;;9.23;8.32;;;11.00;99.90;;;;;;6119792;23;20211;-73
2022/10/23 03:59:59;;;;;;;7.85;7.05;;;11.00;99.90;;;;;;6132084;23;20194;-73
2022/10/23 04:02:26;;;;;;;6.88;6.18;;;11.00;99.90;;;;;;6120331;23;20232;-72
2022/10/23 04:04:53;;;;;;;7.53;6.82;;;10.90;99.90;;;;;;6133913;23;20282;-72
2022/10/23 04:07:20;;;;;;;7.63;6.90;;;10.90;99.90;;;;;;6117406;23;20196;-73
2022/10/23 04:09:49;;;;;;;7.88;7.05;;;10.90;99.90;;;;;;6118343;23;20202;-73
2022/10/23 04:12:16;;;;;;;8.40;7.60;;;10.80;99.90;;;;;;6118664;23;20269;-72
2022/10/23 04:14:43;;;;;;;9.15;8.25;;;10.80;99.90;;;;;;6118315;23;20289;-73
2022/10/23 04:17:10;;;;;;;8.07;7.30;;;10.80;99.90;;;;;;6119169;23;20238;-73
2022/10/23 04:19:38;;;;;;;7.95;7.25;;;10.90;99.90;;;;;;6118095;23;20276;-73
2022/10/23 04:22:05;;;;;;;8.45;7.68;;;10.90;99.90;;;;;;6114077;23;20184;-73
2022/10/23 04:24:32;;;;;;;7.88;7.28;;;11.00;99.90;;;;;;6125086;23;20216;-73
2022/10/23 04:27:00;;;;;;;7.15;6.55;;;11.00;99.90;;;;;;6120971;23;20263;-73
2022/10/23 04:29:31;;;;;;;7.80;7.10;;;11.00;99.90;;;;;;6124893;23;20265;-73
2022/10/23 04:31:58;;;;;;;7.82;7.13;;;11.00;99.90;;;;;;6122409;23;20658;-73
2022/10/23 04:34:25;;;;;;;8.80;6.50;;;11.00;99.90;;;;;;6132153;23;20369;-72
2022/10/23 04:36:52;;;;;;;7.20;6.63;;;11.10;99.90;;;;;;6118909;23;20306;-73
2022/10/23 04:39:19;;;;;;;8.13;6.55;;;11.00;99.90;;;;;;6140473;23;20198;-73
2022/10/23 04:41:47;;;;;;;6.78;6.07;;;11.00;99.90;;;;;;6132573;23;20273;-73
2022/10/23 04:44:16;;;;;;;6.78;6.18;;;11.10;99.90;;;;;;6141133;23;20190;-73
2022/10/23 04:46:43;;;;;;;7.13;6.50;;;11.10;99.90;;;;;;6127337;23;20654;-73
2022/10/23 04:49:11;;;;;;;7.22;6.63;;;11.00;99.90;;;;;;6146854;23;20233;-73
2022/10/23 04:51:38;;;;;;;8.90;7.03;;;11.00;99.90;;;;;;6125671;23;20277;-73
2022/10/23 04:54:05;;;;;;;9.90;6.55;;;11.00;99.90;;;;;;6137379;23;20667;-73
2022/10/23 04:56:32;;;;;;;7.18;6.57;;;11.00;99.90;;;;;;6118426;23;20229;-73
2022/10/23 04:59:00;;;;;;;7.18;6.47;;;11.10;99.90;;;;;;6119400;23;20283;-73
2022/10/23 05:01:28;;;;;;;9.25;6.35;;;11.00;99.90;;;;;;6117690;23;20884;-73
2022/10/23 05:03:55;;;;;;;8.57;6.82;;;11.00;99.90;;;;;;6116526;23;20632;-73
2022/10/23 05:06:23;;;;;;;7.32;6.63;;;11.00;99.90;;;;;;6116717;23;20225;-73
2022/10/23 05:08:50;;;;;;;6.35;5.75;;;11.10;99.90;;;;;;6118224;23;20195;-73
2022/10/23 05:11:17;;;;;;;6.35;5.85;;;11.10;99.90;;;;;;6118302;23;20241;-73
2022/10/23 05:13:45;;;;;;;8.02;5.50;;;11.20;99.90;;;;;;6128184;23;20252;-73
2022/10/23 05:16:22;;;;;;;6.18;5.00;;;11.20;99.90;;;;;;6115028;23;20701;-73
2022/10/23 05:18:51;;;;;;;6.65;5.60;;;11.20;99.90;;;;;;6115589;23;20192;-73
2022/10/23 05:21:21;;;;;;;5.80;5.40;;;11.30;99.90;;;;;;6118630;23;20239;-73
2022/10/23 05:23:49;;;;;;;6.22;4.70;;;11.30;99.90;;;;;;6122819;23;20234;-73
2022/10/23 05:26:16;;;;;;;5.78;5.13;;;11.30;99.90;;;;;;6122314;23;20241;-73
2022/10/23 05:28:43;;;;;;;5.10;4.60;;;11.40;99.90;;;;;;6116247;23;20235;-73
2022/10/23 05:31:10;;;;;;;6.63;5.53;;;11.40;99.90;;;;;;6122362;23;20302;-73
2022/10/23 05:33:39;;;;;;;6.30;5.10;;;11.40;99.90;;;;;;6128063;23;20266;-73
2022/10/23 05:36:09;;;;;;;5.43;4.65;;;11.40;99.90;;;;;;6121007;23;20521;-73
2022/10/23 05:38:36;;;;;;;5.38;4.95;;;11.50;99.90;;;;;;6119570;23;20191;-73
2022/10/23 05:41:04;;;;;;;5.07;4.68;;;11.50;99.90;;;;;;6118172;23;20262;-73
2022/10/23 05:43:31;;;;;;;5.57;5.15;;;11.50;99.90;;;;;;6124045;23;20187;-73
2022/10/23 05:45:58;;;;;;;5.70;5.30;;;11.40;99.90;;;;;;6127307;23;20598;-73
2022/10/23 05:48:26;;;;;;;6.22;5.22;;;11.40;99.90;;;;;;6117540;23;20645;-73
2022/10/23 05:50:53;;;;;;;5.25;4.78;;;11.40;99.90;;;;;;6120016;23;20266;-73
2022/10/23 05:53:21;;;;;;;5.43;4.82;;;11.40;99.90;;;;;;6127773;23;20207;-74
2022/10/23 05:55:48;;;;;;;5.40;4.88;;;11.40;99.90;;;;;;6129240;23;20215;-73
2022/10/23 05:58:15;;;;;;;5.47;4.97;;;11.40;99.90;;;;;;6127448;23;20320;-72
2022/10/23 06:00:42;;;;;;;6.75;4.70;;;11.40;99.90;;;;;;6128136;23;20258;-72
2022/10/23 06:03:09;;;;;;;5.22;4.75;;;11.40;99.90;;;;;;6144759;23;20622;-72
2022/10/23 06:05:37;;;;;;;7.78;5.72;;;11.40;99.90;;;;;;6121779;23;20296;-71
2022/10/23 06:08:04;;;;;;;6.43;5.93;;;11.40;99.90;;;;;;6131074;23;20186;-72
2022/10/23 06:10:33;;;;;;;7.20;5.07;;;11.40;99.90;;;;;;6123595;23;20191;-72
2022/10/23 06:13:00;;;;;;;6.15;5.40;;;11.40;99.90;;;;;;6131542;23;20335;-72
2022/10/23 06:15:27;;;;;;;7.63;5.38;;;11.40;99.90;;;;;;6125726;23;20187;-71
2022/10/23 06:17:54;;;;;;;4.78;4.32;;;11.30;99.90;;;;;;6134838;23;20726;-72
2022/10/23 06:20:21;;;;;;;7.63;5.57;;;11.40;99.90;;;;;;6122098;23;20206;-72
2022/10/23 06:22:48;;;;;;;5.90;5.40;;;11.40;99.90;;;;;;6100865;23;20280;-72
2022/10/23 06:25:16;;;;;;;7.00;5.28;;;11.40;99.90;;;;;;6119621;23;20195;-72
2022/10/23 06:27:44;;;;;;;5.93;5.38;;;11.40;99.90;;;;;;6117253;23;20257;-72
2022/10/23 06:30:12;;;;;;;6.15;5.40;;;11.30;99.90;;;;;;6119896;23;20249;-72
2022/10/23 06:32:39;;;;;;;6.05;5.55;;;11.40;99.90;;;;;;6119093;23;20195;-71
2022/10/23 06:35:07;;;;;;;6.68;5.53;;;11.30;99.90;;;;;;6117750;23;20191;-72
2022/10/23 06:37:34;;;;;;;6.22;5.57;;;11.40;99.90;;;;;;6109308;23;20226;-72
2022/10/23 06:40:02;;;;;;;6.10;5.50;;;11.40;99.90;;;;;;6127227;23;20701;-72
2022/10/23 06:42:29;;;;;;;7.15;4.75;;;11.50;99.90;;;;;;6135711;23;20373;-72
2022/10/23 06:44:58;;;;;;;8.40;5.13;;;11.50;99.90;;;;;;6100562;23;20188;-72
2022/10/23 06:47:25;;;;;;;5.50;5.00;;;11.40;99.90;;;;;;6129893;23;20187;-72
2022/10/23 06:49:52;;;;;;;6.40;5.80;;;11.40;99.90;;;;;;6135791;23;20250;-72
2022/10/23 06:52:19;;;;;;;5.70;4.75;;;11.40;99.90;;;;;;6117640;23;20266;-72
2022/10/23 06:54:46;;;;;;;6.32;4.75;;;11.50;99.90;;;;;;6119825;23;20195;-72
2022/10/23 06:57:13;;;;;;;5.50;5.00;;;11.50;99.90;;;;;;6118835;23;20207;-72
2022/10/23 06:59:40;;;;;;;6.07;5.47;;;11.60;99.90;;;;;;6126996;23;20195;-72
2022/10/23 07:02:10;;;;;;;5.68;5.07;;;11.70;99.90;;;;;;6120014;23;20184;-72
2022/10/23 07:04:38;;;;;;;5.25;4.80;;;11.80;99.90;;;;;;6134597;23;20628;-72
2022/10/23 07:07:06;;;;;;;5.20;4.70;;;11.80;99.90;;;;;;6108560;23;20187;-72
2022/10/23 07:09:36;;;;;;;5.50;4.78;;;11.80;99.90;;;;;;6126543;23;20258;-72
2022/10/23 07:12:03;;;;;;;6.50;5.78;;;11.80;99.90;;;;;;6120171;23;20747;-72
2022/10/23 07:14:31;;;;;;;5.47;4.97;;;11.90;99.90;;;;;;6119198;23;20267;-72
2022/10/23 07:16:58;;;;;;;6.75;5.35;;;12.00;99.90;;;;;;6108841;23;20217;-72
2022/10/23 07:19:26;;;;;;;5.15;4.65;;;12.00;99.90;;;;;;6135476;23;20189;-72
2022/10/23 07:21:53;;;;;;;5.40;4.30;;;12.10;99.90;;;;;;6132777;23;20226;-72
2022/10/23 07:24:21;;;;;;;5.65;4.80;;;12.10;99.90;;;;;;6127691;23;20193;-72
2022/10/23 07:26:48;;;;;;;4.50;4.10;;;12.10;99.90;;;;;;6123902;23;20222;-72
2022/10/23 07:29:15;;;;;;;4.97;4.45;;;12.20;99.90;;;;;;6130834;23;20269;-72
2022/10/23 07:31:43;;;;;;;4.90;4.15;;;12.20;99.90;;;;;;6120221;23;20256;-72
2022/10/23 07:34:10;;;;;;;5.25;4.75;;;12.30;99.90;;;;;;6117897;23;20218;-72
2022/10/23 07:36:39;;;;;;;4.20;3.57;;;12.50;99.90;;;;;;6124548;23;20188;-72
2022/10/23 07:39:07;;;;;;;4.20;3.67;;;12.60;99.90;;;;;;6120532;23;20465;-78
2022/10/23 07:41:34;;;;;;;4.60;3.90;;;12.70;99.90;;;;;;6130921;23;20216;-72
2022/10/23 07:44:01;;;;;;;5.07;3.70;;;12.80;99.90;;;;;;6117843;23;20430;-72
2022/10/23 07:46:28;;;;;;;4.67;3.50;;;12.90;99.90;;;;;;6128011;23;20516;-72
2022/10/23 07:48:55;;;;;;;6.00;3.73;;;13.00;99.90;;;;;;6125165;23;20429;-72
2022/10/23 07:51:22;;;;;;;5.53;3.10;;;13.20;99.90;;;;;;6131672;23;20458;-73
2022/10/23 07:53:51;;;;;;;3.77;3.37;;;13.40;99.90;;;;;;6126183;23;20517;-72
2022/10/23 07:56:23;;;;;;;3.80;3.03;;;13.50;99.90;;;;;;6133577;23;20445;-73
2022/10/23 07:58:52;;;;;;;4.10;3.33;;;13.60;99.90;;;;;;6130204;23;20538;-72
2022/10/23 08:01:23;;;;;;;3.77;3.07;;;13.80;99.90;;;;;;6128526;23;20436;-72
2022/10/23 08:03:50;;;;;;;2.80;2.60;;;14.10;99.90;;;;;;6124166;23;20445;-73
2022/10/23 08:06:17;;;;;;;4.00;2.93;;;14.40;99.90;;;;;;6123692;23;20441;-72
2022/10/23 08:08:44;;;;;;;3.30;2.70;;;14.70;99.90;;;;;;6119112;23;20554;-72
2022/10/23 08:11:15;;;;;;;3.20;2.83;;;14.90;99.90;;;;;;6120438;23;20786;-73
2022/10/23 08:13:43;;;;;;;3.23;2.60;;;15.10;99.90;;;;;;6127753;23;20440;-73
2022/10/23 08:16:10;;;;;;;2.53;2.03;;;15.30;99.90;;;;;;6121285;23;20430;-70
2022/10/23 08:18:39;;;;;;;2.90;2.10;;;15.70;99.90;;;;;;6117042;23;20537;-72
2022/10/23 08:21:06;;;;;;;3.10;2.20;;;15.60;99.90;;;;;;6120106;23;20429;-73
2022/10/23 08:23:33;;;;;;;3.20;2.27;;;15.70;99.90;;;;;;6119426;23;20513;-72
2022/10/23 08:26:04;;;;;;;3.50;2.60;;;16.00;99.90;;;;;;6120770;23;20536;-73
2022/10/23 08:28:33;;;;;;;2.53;2.33;;;16.20;99.90;;;;;;6128798;23;20489;-73
2022/10/23 08:31:07;;;;;;;2.40;2.20;;;16.50;99.90;;;;;;6124848;23;20520;-73
2022/10/23 08:33:35;;;;;;;5.00;2.10;;;16.70;99.90;;;;;;6126408;23;20527;-73
2022/10/23 08:36:02;;;;;;;2.73;2.40;;;16.80;99.90;;;;;;6118036;23;20445;-73
2022/10/23 08:38:29;;;;;;;4.27;2.30;;;16.90;99.90;;;;;;6118456;23;20502;-73
2022/10/23 08:40:56;;;;;;;2.37;2.10;;;17.20;99.90;;;;;;6114259;23;20544;-73
2022/10/23 08:43:33;;;;;;;2.70;2.50;;;17.00;99.90;;;;;;6124041;23;20979;-73
2022/10/23 08:46:07;;;;;;;2.10;1.80;;;17.00;99.90;;;;;;6119752;23;20928;-73
2022/10/23 08:48:42;;;;;;;2.50;1.77;;;17.10;99.90;;;;;;6117214;23;20417;-73
2022/10/23 08:51:16;;;;;;;2.43;1.87;;;16.90;99.90;;;;;;6117045;23;20773;-73
2022/10/23 08:53:51;;;;;;;2.80;1.90;;;16.70;99.90;;;;;;6117445;23;20432;-73
2022/10/23 08:56:25;;;;;;;3.30;2.20;;;16.70;99.90;;;;;;6117697;23;20493;-73
2022/10/23 08:58:58;;;;;;;1.93;1.83;;;17.00;99.90;;;;;;6116041;23;20456;-74
2022/10/23 09:01:37;;;;;;;2.37;1.90;;;17.30;99.90;;;;;;6120201;23;20521;-73
2022/10/23 09:04:05;;;;;;;2.40;1.97;;;17.70;99.90;;;;;;6126232;23;20512;-73
2022/10/23 09:06:37;;;;;;;2.43;1.97;;;17.90;99.90;;;;;;6119847;23;20464;-72
2022/10/23 09:09:30;;;;;;;2.73;2.07;;;18.10;99.90;;;;;;6118792;23;20459;-73
2022/10/23 09:12:02;;;;;;;2.57;1.80;;;18.50;99.90;;;;;;6126049;23;20439;-73
2022/10/23 09:14:55;;;;;;;2.50;2.30;;;18.90;99.90;;;;;;6113054;23;20499;-70
2022/10/23 09:17:27;;;;;;;2.30;2.10;;;19.50;99.90;;;;;;6112779;23;20454;-73
2022/10/23 09:20:01;;;;;;;2.10;1.80;;;19.70;99.90;;;;;;6127820;23;20474;-73
2022/10/23 09:22:29;;;;;;;2.63;2.00;;;19.60;99.90;;;;;;6116127;23;20548;-73
2022/10/23 09:24:56;;;;;;;2.30;1.83;;;19.60;99.90;;;;;;6133848;23;20489;-73
2022/10/23 09:27:24;;;;;;;2.10;1.87;;;19.70;99.90;;;;;;6132340;23;20442;-73
2022/10/23 09:29:53;;;;;;;3.00;2.07;;;19.90;99.90;;;;;;6120742;23;20435;-73
2022/10/23 09:32:33;;;;;;;2.30;2.10;;;19.80;99.90;;;;;;6123764;23;20947;-73
2022/10/23 09:35:01;;;;;;;3.13;1.80;;;19.80;99.90;;;;;;6125532;23;20433;-73
2022/10/23 09:37:30;;;;;;;2.33;2.10;;;20.00;99.90;;;;;;6130715;23;20531;-73
2022/10/23 09:40:03;;;;;;;2.83;1.93;;;20.40;99.90;;;;;;6147649;23;20718;-73
2022/10/23 09:42:31;;;;;;;1.70;1.53;;;20.50;99.90;;;;;;6126933;23;20441;-73
2022/10/23 09:44:58;;;;;;;2.33;1.93;;;20.80;99.90;;;;;;6124778;23;20519;-74
2022/10/23 09:47:27;;;;;;;3.67;1.70;;;20.50;99.90;;;;;;6117172;23;20448;-73
2022/10/23 09:49:57;;;;;;;2.50;1.43;;;20.70;99.90;;;;;;6118766;23;20566;-73
2022/10/23 09:52:29;;;;;;;1.77;1.67;;;20.90;99.90;;;;;;6119841;23;20429;-73
2022/10/23 09:54:59;;;;;;;2.43;2.00;;;21.10;99.90;;;;;;6103653;23;20509;-73
2022/10/23 09:57:30;;;;;;;3.30;1.77;;;21.30;99.90;;;;;;6119272;23;20428;-73
2022/10/23 10:00:01;;;;;;;1.87;1.50;;;20.80;99.90;;;;;;6120218;23;20504;-73
2022/10/23 10:02:30;;;;;;;1.93;1.83;;;20.80;99.90;;;;;;6113865;23;20445;-73
2022/10/23 10:04:59;;;;;;;2.73;1.60;;;20.90;99.90;;;;;;6101829;23;20473;-74
2022/10/23 10:07:29;;;;;;;2.53;1.90;;;21.00;99.90;;;;;;6111815;23;20430;-73
2022/10/23 10:09:57;;;;;;;2.37;2.17;;;21.30;99.90;;;;;;6119322;23;20863;-73
2022/10/23 10:12:39;;;;;;;2.83;2.00;;;21.10;99.90;;;;;;6120440;23;20425;-73
2022/10/23 10:15:18;;;;;;;2.60;1.77;;;21.30;99.90;;;;;;6119954;23;20429;-73
2022/10/23 10:17:57;;;;;;;1.50;1.40;;;21.20;99.90;;;;;;6109396;23;20429;-74
2022/10/23 10:20:42;;;;;;;3.50;2.20;;;21.50;99.90;;;;;;6119570;23;20451;-74
2022/10/23 10:23:18;;;;;;;3.07;1.83;;;21.70;99.90;;;;;;6104035;23;20432;-73
2022/10/23 10:25:53;;;;;;;2.37;1.80;;;21.80;99.90;;;;;;6119799;23;20756;-73
2022/10/23 10:28:40;;;;;;;3.13;1.70;;;21.40;99.90;;;;;;6119972;23;20434;-73
2022/10/23 10:31:15;;;;;;;1.63;1.53;;;21.30;99.90;;;;;;6119616;23;20915;-73
2022/10/23 10:33:53;;;;;;;1.73;1.63;;;20.90;99.90;;;;;;6115684;23;20509;-73
2022/10/23 10:36:40;;;;;;;1.63;1.53;;;21.00;99.90;;;;;;6117893;23;20461;-73
2022/10/23 10:39:15;;;;;;;5.37;1.63;;;21.30;99.90;;;;;;6118789;23;20536;-73
2022/10/23 10:41:50;;;;;;;2.03;1.80;;;21.70;99.90;;;;;;6120020;23;20790;-73
2022/10/23 10:44:38;;;;;;;2.40;1.63;;;21.80;99.90;;;;;;6119272;23;20487;-73
2022/10/23 10:47:13;;;;;;;2.60;1.90;;;22.00;99.90;;;;;;6105242;23;20484;-73
2022/10/23 10:49:47;;;;;;;1.50;1.40;;;21.90;99.90;;;;;;6120123;23;20499;-73
2022/10/23 10:52:24;;;;;;;6.10;2.00;;;21.60;99.90;;;;;;6115715;23;20429;-71
2022/10/23 10:54:58;;;;;;;2.10;1.57;;;21.30;99.90;;;;;;6106539;23;20984;-70
2022/10/23 10:57:32;;;;;;;2.20;1.67;;;21.20;99.90;;;;;;6090037;23;20473;-71
2022/10/23 11:00:05;;;;;;;2.63;2.00;;;21.20;99.90;;;;;;6115193;23;20458;-71
2022/10/23 11:02:40;;;;;;;1.67;1.53;;;21.30;99.90;;;;;;6107237;23;20848;-71
2022/10/23 11:05:22;;;;;;;3.40;1.80;;;21.30;99.90;;;;;;6118102;23;20433;-71
2022/10/23 11:07:56;;;;;;;1.70;1.60;;;21.30;99.90;;;;;;6128233;23;20436;-73
2022/10/23 11:10:23;;;;;;;1.77;1.40;;;21.00;99.90;;;;;;6125569;23;20437;-72
2022/10/23 11:12:51;;;;;;;1.60;1.50;;;20.80;99.90;;;;;;6125207;23;20463;-71
2022/10/23 11:15:24;;;;;;;1.83;1.70;;;20.70;99.90;;;;;;6128890;23;20537;-71
2022/10/23 11:17:56;;;;;;;1.70;1.60;;;20.70;99.90;;;;;;6127575;23;20472;-71
2022/10/23 11:20:49;;;;;;;1.80;1.70;;;20.50;99.90;;;;;;6127424;23;20435;-71
2022/10/23 11:23:41;;;;;;;1.87;1.40;;;20.50;99.90;;;;;;6133630;23;20506;-71
2022/10/23 11:26:24;;;;;;;2.53;1.70;;;20.50;99.90;;;;;;6135284;23;20431;-71
2022/10/23 11:29:09;;;;;;;2.43;1.83;;;20.50;99.90;;;;;;6130102;23;20517;-71
2022/10/23 11:31:41;;;;;;;1.97;1.70;;;20.50;99.90;;;;;;6104016;23;20489;-71
2022/10/23 11:34:43;;;;;;;2.67;1.80;;;20.40;99.90;;;;;;6113065;23;20912;-71
2022/10/23 11:37:15;;;;;;;2.73;1.70;;;20.30;99.90;;;;;;6111516;23;20434;-73
2022/10/23 11:40:00;;;;;;;5.30;2.20;;;20.30;99.90;;;;;;6119447;23;20993;-73
2022/10/23 11:42:31;;;;;;;2.60;1.70;;;20.20;99.90;;;;;;6119987;23;20788;-71
2022/10/23 11:44:59;;;;;;;1.80;1.70;;;20.10;99.90;;;;;;6111515;23;20521;-71
2022/10/23 11:47:32;;;;;;;1.77;1.67;;;20.00;99.90;;;;;;6126005;23;20434;-71
2022/10/23 11:50:26;;;;;;;1.80;1.70;;;20.00;99.90;;;;;;6126026;23;20441;-71
2022/10/23 11:52:57;;;;;;;2.07;1.50;;;19.90;99.90;;;;;;6128260;23;20462;-71
2022/10/23 11:55:28;;;;;;;3.20;1.40;;;20.10;99.90;;;;;;6106394;23;20549;-71
2022/10/23 11:58:30;;;;;;;2.00;1.80;;;20.10;99.90;;;;;;6121035;23;20919;-73
2022/10/23 12:01:02;;;;;;;2.07;1.73;;;20.20;99.90;;;;;;6126209;23;20422;-73
2022/10/23 12:03:39;;;;;;;3.27;1.40;;;20.30;99.90;;;;;;6146261;23;20451;-73
2022/10/23 12:06:08;;;;;;;1.30;1.20;;;20.30;99.90;;;;;;6142123;23;20436;-74
2022/10/23 12:08:40;;;;;;;1.50;1.40;;;20.40;99.90;;;;;;6141194;23;20503;-73
2022/10/23 12:11:25;;;;;;;1.40;1.23;;;20.40;99.90;;;;;;6117563;23;20422;-73
2022/10/23 12:13:52;;;;;;;2.60;1.30;;;20.60;99.90;;;;;;6116518;23;20472;-73
2022/10/23 12:16:20;;;;;;;2.40;1.27;;;20.50;99.90;;;;;;6118082;23;20452;-73
2022/10/23 12:18:49;;;;;;;1.70;1.60;;;20.60;99.90;;;;;;6113673;23;20818;-73
2022/10/23 12:21:20;;;;;;;2.47;1.50;;;20.60;99.90;;;;;;6115258;23;20513;-73
2022/10/23 12:24:13;;;;;;;2.80;1.77;;;20.70;99.90;;;;;;6125776;23;20987;-73
2022/10/23 12:27:00;;;;;;;2.67;1.80;;;20.90;99.90;;;;;;6125668;23;20474;-73
2022/10/23 12:29:39;;;;;;;3.13;1.87;;;20.90;99.90;;;;;;6140616;23;20553;-73
2022/10/23 12:32:22;;;;;;;3.03;1.77;;;21.00;99.90;;;;;;6141569;23;20439;-73
2022/10/23 12:34:59;;;;;;;2.33;1.80;;;21.10;99.90;;;;;;6134713;23;20472;-73
2022/10/23 12:37:50;;;;;;;2.20;2.07;;;21.20;99.90;;;;;;6132160;23;20448;-73
2022/10/23 12:40:17;;;;;;;2.00;1.80;;;21.20;99.90;;;;;;6134869;23;20970;-73
2022/10/23 12:42:53;;;;;;;1.80;1.70;;;21.10;99.90;;;;;;6121543;23;20447;-73
2022/10/23 12:45:24;;;;;;;2.20;1.97;;;21.20;99.90;;;;;;6117377;23;20439;-74
2022/10/23 12:47:52;;;;;;;2.40;1.47;;;21.50;99.90;;;;;;6139286;23;20428;-73
2022/10/23 12:50:21;;;;;;;1.70;1.60;;;21.80;99.90;;;;;;6139979;23;20421;-73
2022/10/23 12:52:53;;;;;;;1.73;1.47;;;22.00;99.90;;;;;;6130277;23;20453;-72
2022/10/23 12:55:21;;;;;;;2.03;1.73;;;22.20;99.90;;;;;;6119278;23;20745;-73
2022/10/23 12:57:48;;;;;;;1.67;1.50;;;22.30;99.90;;;;;;6107262;23;20442;-73
2022/10/23 13:00:20;;;;;;;2.00;1.77;;;22.20;99.90;;;;;;6109837;23;20464;-73
2022/10/23 13:02:56;;;;;;;4.27;1.83;;;22.30;99.90;;;;;;6090263;23;20423;-73
2022/10/23 13:05:25;;;;;;;1.80;1.70;;;22.50;99.90;;;;;;6125332;23;20429;-74